IBE14N OEMA-HESH
Flight info
| Callsign | IBE14N |
|---|---|
| Flight time | 1h 5m |
| Altitude | 36000 |
| Route | PEGUR Z712 WEJ L677 SHM |
| Aircraft | A320/M-SDE3FGHIRWY/LB1 |
Departure
| Time | 2026-05-06 10:18 |
|---|---|
| Airport | Prince Mohammad Bin Abdulaziz Airport (OEMA) |
Arrival
| Time | 2026-05-06 11:24 |
|---|---|
| Airport | Sharm El Sheikh International Airport (HESH) |
| Time | Latitude | Longitude | Altitude | Speed | Heading |
|---|---|---|---|---|---|
| 2026-05-06 10:10 | 24.54841 | 39.71413 | 2092 ft | 0 kts | 265° |
| 2026-05-06 10:17 | 24.54846 | 39.71344 | 2092 ft | 24 kts | 279° |
| 2026-05-06 10:17 | 24.54827 | 39.71157 | 2092 ft | 25 kts | 253° |
| 2026-05-06 10:17 | 24.54868 | 39.70995 | 2093 ft | 22 kts | 306° |
| 2026-05-06 10:17 | 24.54980 | 39.70901 | 2096 ft | 20 kts | 351° |
| 2026-05-06 10:18 | 24.55252 | 39.70839 | 2098 ft | 73 kts | 348° |
| 2026-05-06 10:18 | 24.55961 | 39.70686 | 2113 ft | 132 kts | 349° |
| 2026-05-06 10:18 | 24.57006 | 39.70474 | 2255 ft | 165 kts | 349° |
| 2026-05-06 10:18 | 24.58169 | 39.70235 | 2791 ft | 173 kts | 347° |
| 2026-05-06 10:19 | 24.59377 | 39.69977 | 3436 ft | 181 kts | 345° |
| 2026-05-06 10:19 | 24.60590 | 39.69717 | 4057 ft | 176 kts | 345° |
| 2026-05-06 10:19 | 24.61838 | 39.69446 | 4356 ft | 190 kts | 345° |
| 2026-05-06 10:19 | 24.63186 | 39.69149 | 4619 ft | 204 kts | 343° |
| 2026-05-06 10:20 | 24.64543 | 39.68541 | 4999 ft | 217 kts | 324° |
| 2026-05-06 10:20 | 24.65709 | 39.67440 | 5383 ft | 227 kts | 306° |
| 2026-05-06 10:20 | 24.66524 | 39.65907 | 5762 ft | 240 kts | 291° |
| 2026-05-06 10:20 | 24.67208 | 39.64189 | 6303 ft | 248 kts | 291° |
| 2026-05-06 10:21 | 24.67911 | 39.62439 | 6942 ft | 251 kts | 291° |
| 2026-05-06 10:21 | 24.68631 | 39.60654 | 7503 ft | 262 kts | 290° |
| 2026-05-06 10:21 | 24.69511 | 39.58860 | 8079 ft | 278 kts | 302° |
| 2026-05-06 10:21 | 24.70849 | 39.57292 | 8831 ft | 286 kts | 316° |
| 2026-05-06 10:22 | 24.72482 | 39.55989 | 9591 ft | 293 kts | 319° |
| 2026-05-06 10:22 | 24.74150 | 39.54673 | 10296 ft | 300 kts | 319° |
| 2026-05-06 10:22 | 24.75886 | 39.53293 | 10685 ft | 316 kts | 318° |
| 2026-05-06 10:22 | 24.77718 | 39.51833 | 11038 ft | 333 kts | 318° |
| 2026-05-06 10:23 | 24.79644 | 39.50300 | 11375 ft | 350 kts | 319° |
| 2026-05-06 10:23 | 24.81661 | 39.48699 | 11781 ft | 363 kts | 319° |
| 2026-05-06 10:23 | 24.83733 | 39.47061 | 12398 ft | 369 kts | 319° |
| 2026-05-06 10:23 | 24.85829 | 39.45403 | 13061 ft | 374 kts | 318° |
| 2026-05-06 10:24 | 24.87958 | 39.43715 | 13657 ft | 380 kts | 318° |
| 2026-05-06 10:24 | 24.90119 | 39.42001 | 14246 ft | 384 kts | 318° |
| 2026-05-06 10:24 | 24.92297 | 39.40275 | 14865 ft | 387 kts | 319° |
| 2026-05-06 10:24 | 24.94484 | 39.38539 | 15546 ft | 388 kts | 319° |
| 2026-05-06 10:25 | 24.96676 | 39.36797 | 16190 ft | 390 kts | 319° |
| 2026-05-06 10:25 | 24.98880 | 39.35040 | 16858 ft | 391 kts | 319° |
| 2026-05-06 10:25 | 25.01087 | 39.33275 | 17506 ft | 393 kts | 319° |
| 2026-05-06 10:25 | 25.03311 | 39.31498 | 18160 ft | 396 kts | 319° |
| 2026-05-06 10:26 | 25.05547 | 39.29711 | 18743 ft | 398 kts | 319° |
| 2026-05-06 10:26 | 25.07797 | 39.27915 | 19309 ft | 400 kts | 319° |
| 2026-05-06 10:26 | 25.10060 | 39.26111 | 19860 ft | 403 kts | 319° |
| 2026-05-06 10:26 | 25.12343 | 39.24292 | 20403 ft | 406 kts | 319° |
| 2026-05-06 10:27 | 25.14645 | 39.22458 | 20940 ft | 409 kts | 319° |
| 2026-05-06 10:27 | 25.16927 | 39.20637 | 21457 ft | 412 kts | 319° |
| 2026-05-06 10:27 | 25.19254 | 39.18774 | 21972 ft | 415 kts | 319° |
| 2026-05-06 10:27 | 25.21478 | 39.16765 | 22485 ft | 413 kts | 311° |
| 2026-05-06 10:28 | 25.23363 | 39.14394 | 22964 ft | 410 kts | 301° |
| 2026-05-06 10:28 | 25.24939 | 39.11770 | 23445 ft | 411 kts | 298° |
| 2026-05-06 10:28 | 25.26493 | 39.09109 | 23860 ft | 413 kts | 298° |
| 2026-05-06 10:28 | 25.28056 | 39.06437 | 24274 ft | 415 kts | 298° |
| 2026-05-06 10:29 | 25.29631 | 39.03752 | 24675 ft | 417 kts | 298° |
| 2026-05-06 10:29 | 25.31207 | 39.01063 | 25065 ft | 418 kts | 297° |
| 2026-05-06 10:29 | 25.32790 | 38.98357 | 25461 ft | 420 kts | 297° |
| 2026-05-06 10:29 | 25.34376 | 38.95647 | 25857 ft | 421 kts | 297° |
| 2026-05-06 10:30 | 25.35968 | 38.92925 | 26250 ft | 422 kts | 297° |
| 2026-05-06 10:30 | 25.37568 | 38.90192 | 26635 ft | 424 kts | 297° |
| 2026-05-06 10:30 | 25.39169 | 38.87452 | 27020 ft | 425 kts | 297° |
| 2026-05-06 10:30 | 25.40768 | 38.84706 | 27377 ft | 426 kts | 296° |
| 2026-05-06 10:31 | 25.42373 | 38.81944 | 27714 ft | 427 kts | 296° |
| 2026-05-06 10:31 | 25.43981 | 38.79176 | 28060 ft | 428 kts | 296° |
| 2026-05-06 10:31 | 25.45595 | 38.76397 | 28375 ft | 430 kts | 296° |
| 2026-05-06 10:31 | 25.47213 | 38.73611 | 28685 ft | 431 kts | 296° |
| 2026-05-06 10:32 | 25.48839 | 38.70814 | 28994 ft | 432 kts | 296° |
| 2026-05-06 10:32 | 25.50467 | 38.68015 | 29260 ft | 434 kts | 296° |
| 2026-05-06 10:32 | 25.52101 | 38.65201 | 29526 ft | 435 kts | 296° |
| 2026-05-06 10:32 | 25.53715 | 38.62421 | 29796 ft | 436 kts | 296° |
| 2026-05-06 10:33 | 25.55351 | 38.59599 | 30122 ft | 434 kts | 296° |
| 2026-05-06 10:33 | 25.56982 | 38.56787 | 30448 ft | 432 kts | 296° |
| 2026-05-06 10:33 | 25.58603 | 38.53991 | 30769 ft | 430 kts | 295° |
| 2026-05-06 10:33 | 25.60215 | 38.51206 | 31079 ft | 429 kts | 295° |
| 2026-05-06 10:34 | 25.61822 | 38.48427 | 31408 ft | 427 kts | 295° |
| 2026-05-06 10:34 | 25.63422 | 38.45660 | 31727 ft | 426 kts | 295° |
| 2026-05-06 10:34 | 25.65023 | 38.42896 | 32053 ft | 424 kts | 295° |
| 2026-05-06 10:34 | 25.66609 | 38.40151 | 32371 ft | 423 kts | 295° |
| 2026-05-06 10:35 | 25.68189 | 38.37410 | 32694 ft | 421 kts | 295° |
| 2026-05-06 10:35 | 25.69762 | 38.34677 | 33014 ft | 420 kts | 294° |
| 2026-05-06 10:35 | 25.71329 | 38.31953 | 33336 ft | 418 kts | 294° |
| 2026-05-06 10:35 | 25.72894 | 38.29239 | 33660 ft | 417 kts | 294° |
| 2026-05-06 10:36 | 25.74452 | 38.26534 | 33977 ft | 416 kts | 294° |
| 2026-05-06 10:36 | 25.75986 | 38.23872 | 34237 ft | 414 kts | 294° |
| 2026-05-06 10:36 | 25.77551 | 38.21148 | 34491 ft | 413 kts | 294° |
| 2026-05-06 10:36 | 25.79074 | 38.18496 | 34708 ft | 413 kts | 294° |
| 2026-05-06 10:37 | 25.80616 | 38.15812 | 34938 ft | 412 kts | 294° |
| 2026-05-06 10:37 | 25.82157 | 38.13131 | 35158 ft | 412 kts | 294° |
| 2026-05-06 10:37 | 25.83694 | 38.10458 | 35377 ft | 411 kts | 294° |
| 2026-05-06 10:37 | 25.85232 | 38.07784 | 35614 ft | 410 kts | 294° |
| 2026-05-06 10:38 | 25.86764 | 38.05111 | 35842 ft | 410 kts | 293° |
| 2026-05-06 10:38 | 25.88291 | 38.02440 | 35940 ft | 410 kts | 293° |
| 2026-05-06 10:38 | 25.91341 | 37.97103 | 35960 ft | 409 kts | 293° |
| 2026-05-06 10:39 | 25.93877 | 37.92664 | 35968 ft | 409 kts | 294° |
| 2026-05-06 10:39 | 25.96923 | 37.87324 | 35972 ft | 410 kts | 293° |
| 2026-05-06 10:40 | 25.99817 | 37.81912 | 35981 ft | 401 kts | 285° |
| 2026-05-06 10:40 | 26.01179 | 37.76059 | 35987 ft | 388 kts | 272° |
| 2026-05-06 10:41 | 26.01964 | 37.70118 | 35992 ft | 389 kts | 272° |
| 2026-05-06 10:41 | 26.02771 | 37.64157 | 35989 ft | 391 kts | 272° |
| 2026-05-06 10:42 | 26.03587 | 37.58199 | 36001 ft | 389 kts | 273° |
| 2026-05-06 10:42 | 26.04393 | 37.52259 | 35998 ft | 389 kts | 272° |
| 2026-05-06 10:43 | 26.05197 | 37.46309 | 35992 ft | 389 kts | 272° |
| 2026-05-06 10:44 | 26.06381 | 37.37427 | 35984 ft | 389 kts | 272° |
| 2026-05-06 10:44 | 26.07172 | 37.31480 | 35984 ft | 389 kts | 272° |
| 2026-05-06 10:45 | 26.07963 | 37.25535 | 35982 ft | 389 kts | 272° |
| 2026-05-06 10:45 | 26.08751 | 37.19583 | 35981 ft | 389 kts | 272° |
| 2026-05-06 10:46 | 26.09536 | 37.13635 | 35978 ft | 389 kts | 272° |
| 2026-05-06 10:46 | 26.10319 | 37.07689 | 35972 ft | 389 kts | 272° |
| 2026-05-06 10:47 | 26.11099 | 37.01741 | 35970 ft | 389 kts | 272° |
| 2026-05-06 10:47 | 26.11876 | 36.95790 | 35972 ft | 389 kts | 272° |
| 2026-05-06 10:48 | 26.12654 | 36.89828 | 35970 ft | 389 kts | 272° |
| 2026-05-06 10:48 | 26.13425 | 36.83875 | 35968 ft | 389 kts | 272° |
| 2026-05-06 10:49 | 26.14196 | 36.77917 | 35964 ft | 389 kts | 272° |
| 2026-05-06 10:49 | 26.14966 | 36.71957 | 35961 ft | 389 kts | 272° |
| 2026-05-06 10:50 | 26.15736 | 36.65998 | 35964 ft | 389 kts | 272° |
| 2026-05-06 10:50 | 26.16504 | 36.60039 | 35959 ft | 389 kts | 272° |
| 2026-05-06 10:51 | 26.17259 | 36.54114 | 35960 ft | 389 kts | 272° |
| 2026-05-06 10:51 | 26.18969 | 36.48313 | 35954 ft | 407 kts | 292° |
| 2026-05-06 10:51 | 26.20638 | 36.45717 | 35949 ft | 420 kts | 303° |
| 2026-05-06 10:52 | 26.22671 | 36.43352 | 35952 ft | 423 kts | 305° |
| 2026-05-06 10:52 | 26.26773 | 36.38647 | 35958 ft | 423 kts | 305° |
| 2026-05-06 10:53 | 26.30869 | 36.33938 | 35969 ft | 423 kts | 304° |
| 2026-05-06 10:53 | 26.34954 | 36.29219 | 35977 ft | 423 kts | 304° |
| 2026-05-06 10:54 | 26.39044 | 36.24495 | 35977 ft | 425 kts | 305° |
| 2026-05-06 10:54 | 26.43196 | 36.19677 | 35965 ft | 434 kts | 306° |
| 2026-05-06 10:55 | 26.47399 | 36.14818 | 35967 ft | 435 kts | 306° |
| 2026-05-06 10:55 | 26.51603 | 36.09961 | 35970 ft | 435 kts | 306° |
| 2026-05-06 10:56 | 26.55800 | 36.05096 | 35973 ft | 435 kts | 306° |
| 2026-05-06 10:56 | 26.59990 | 36.00226 | 35980 ft | 435 kts | 306° |
| 2026-05-06 10:57 | 26.64155 | 35.95380 | 35986 ft | 435 kts | 306° |
| 2026-05-06 10:57 | 26.68335 | 35.90501 | 35996 ft | 434 kts | 306° |
| 2026-05-06 10:58 | 26.72521 | 35.85624 | 36000 ft | 434 kts | 306° |
| 2026-05-06 10:58 | 26.76704 | 35.80746 | 35997 ft | 434 kts | 306° |
| 2026-05-06 10:59 | 26.80883 | 35.75870 | 35996 ft | 434 kts | 306° |
| 2026-05-06 10:59 | 26.85059 | 35.71003 | 35691 ft | 433 kts | 306° |
| 2026-05-06 10:59 | 26.87145 | 35.68563 | 35456 ft | 434 kts | 306° |
| 2026-05-06 11:00 | 26.89229 | 35.66114 | 35221 ft | 434 kts | 306° |
| 2026-05-06 11:00 | 26.91309 | 35.63663 | 34988 ft | 435 kts | 306° |
| 2026-05-06 11:00 | 26.93397 | 35.61204 | 34756 ft | 436 kts | 307° |
| 2026-05-06 11:00 | 26.95487 | 35.58747 | 34528 ft | 436 kts | 307° |
| 2026-05-06 11:01 | 26.97586 | 35.56283 | 34299 ft | 437 kts | 307° |
| 2026-05-06 11:01 | 26.99687 | 35.53818 | 34075 ft | 437 kts | 307° |
| 2026-05-06 11:01 | 27.01786 | 35.51353 | 33835 ft | 438 kts | 307° |
| 2026-05-06 11:01 | 27.03892 | 35.48877 | 33567 ft | 439 kts | 307° |
| 2026-05-06 11:02 | 27.05999 | 35.46398 | 33308 ft | 439 kts | 307° |
| 2026-05-06 11:02 | 27.08111 | 35.43915 | 33051 ft | 440 kts | 307° |
| 2026-05-06 11:02 | 27.10225 | 35.41428 | 32787 ft | 441 kts | 308° |
| 2026-05-06 11:02 | 27.12345 | 35.38931 | 32542 ft | 442 kts | 308° |
| 2026-05-06 11:03 | 27.14466 | 35.36429 | 32289 ft | 443 kts | 308° |
| 2026-05-06 11:03 | 27.16591 | 35.33925 | 32035 ft | 444 kts | 308° |
| 2026-05-06 11:03 | 27.18694 | 35.31446 | 31792 ft | 444 kts | 308° |
| 2026-05-06 11:03 | 27.20828 | 35.28931 | 31549 ft | 445 kts | 308° |
| 2026-05-06 11:04 | 27.22964 | 35.26409 | 31305 ft | 446 kts | 308° |
| 2026-05-06 11:04 | 27.25096 | 35.23883 | 31064 ft | 446 kts | 309° |
| 2026-05-06 11:04 | 27.27236 | 35.21346 | 30823 ft | 447 kts | 309° |
| 2026-05-06 11:04 | 27.29378 | 35.18806 | 30583 ft | 448 kts | 309° |
| 2026-05-06 11:05 | 27.31525 | 35.16261 | 30353 ft | 449 kts | 309° |
| 2026-05-06 11:05 | 27.33678 | 35.13713 | 30117 ft | 450 kts | 309° |
| 2026-05-06 11:05 | 27.35836 | 35.11160 | 29857 ft | 451 kts | 309° |
| 2026-05-06 11:05 | 27.37992 | 35.08608 | 29382 ft | 448 kts | 309° |
| 2026-05-06 11:06 | 27.40127 | 35.06077 | 28344 ft | 441 kts | 309° |
| 2026-05-06 11:06 | 27.42207 | 35.03613 | 27695 ft | 428 kts | 309° |
| 2026-05-06 11:06 | 27.44232 | 35.01211 | 27009 ft | 418 kts | 309° |
| 2026-05-06 11:06 | 27.46207 | 34.98867 | 26351 ft | 409 kts | 309° |
| 2026-05-06 11:07 | 27.48150 | 34.96554 | 25700 ft | 404 kts | 309° |
| 2026-05-06 11:07 | 27.50070 | 34.94261 | 25068 ft | 401 kts | 309° |
| 2026-05-06 11:07 | 27.51986 | 34.92001 | 24431 ft | 398 kts | 310° |
| 2026-05-06 11:07 | 27.53956 | 34.89822 | 23785 ft | 395 kts | 312° |
| 2026-05-06 11:08 | 27.55956 | 34.87719 | 23095 ft | 392 kts | 313° |
| 2026-05-06 11:08 | 27.57964 | 34.85655 | 22489 ft | 389 kts | 314° |
| 2026-05-06 11:08 | 27.59958 | 34.83606 | 21909 ft | 386 kts | 313° |
| 2026-05-06 11:08 | 27.61924 | 34.81567 | 21360 ft | 383 kts | 313° |
| 2026-05-06 11:09 | 27.63866 | 34.79532 | 20818 ft | 379 kts | 313° |
| 2026-05-06 11:09 | 27.65783 | 34.77507 | 20305 ft | 376 kts | 313° |
| 2026-05-06 11:09 | 27.67685 | 34.75490 | 19795 ft | 374 kts | 313° |
| 2026-05-06 11:09 | 27.69543 | 34.73511 | 19314 ft | 371 kts | 313° |
| 2026-05-06 11:10 | 27.71416 | 34.71519 | 18835 ft | 369 kts | 313° |
| 2026-05-06 11:10 | 27.73277 | 34.69543 | 18356 ft | 366 kts | 314° |
| 2026-05-06 11:10 | 27.75126 | 34.67584 | 17839 ft | 364 kts | 314° |
| 2026-05-06 11:10 | 27.76964 | 34.65636 | 17358 ft | 361 kts | 314° |
| 2026-05-06 11:11 | 27.78789 | 34.63700 | 16882 ft | 358 kts | 314° |
| 2026-05-06 11:11 | 27.80598 | 34.61778 | 16393 ft | 356 kts | 314° |
| 2026-05-06 11:11 | 27.82395 | 34.59864 | 15908 ft | 353 kts | 314° |
| 2026-05-06 11:11 | 27.84175 | 34.57967 | 15402 ft | 351 kts | 314° |
| 2026-05-06 11:12 | 27.85946 | 34.56081 | 14902 ft | 348 kts | 314° |
| 2026-05-06 11:12 | 27.87700 | 34.54214 | 14393 ft | 345 kts | 314° |
| 2026-05-06 11:12 | 27.89445 | 34.52357 | 13882 ft | 343 kts | 314° |
| 2026-05-06 11:12 | 27.91173 | 34.50517 | 13322 ft | 340 kts | 314° |
| 2026-05-06 11:13 | 27.92888 | 34.48688 | 12791 ft | 338 kts | 314° |
| 2026-05-06 11:13 | 27.94591 | 34.46872 | 12266 ft | 335 kts | 314° |
| 2026-05-06 11:13 | 27.96245 | 34.45037 | 11818 ft | 331 kts | 307° |
| 2026-05-06 11:13 | 27.97234 | 34.42733 | 11744 ft | 327 kts | 279° |
| 2026-05-06 11:14 | 27.97116 | 34.40201 | 11676 ft | 326 kts | 251° |
| 2026-05-06 11:14 | 27.95922 | 34.38045 | 11605 ft | 329 kts | 224° |
| 2026-05-06 11:14 | 27.93930 | 34.36787 | 11524 ft | 335 kts | 196° |
| 2026-05-06 11:14 | 27.91604 | 34.36709 | 11448 ft | 333 kts | 173° |
| 2026-05-06 11:15 | 27.89389 | 34.37043 | 11168 ft | 311 kts | 179° |
| 2026-05-06 11:15 | 27.87298 | 34.37083 | 10653 ft | 301 kts | 184° |
| 2026-05-06 11:15 | 27.85224 | 34.36983 | 10044 ft | 295 kts | 186° |
| 2026-05-06 11:15 | 27.83187 | 34.36860 | 9370 ft | 292 kts | 186° |
| 2026-05-06 11:16 | 27.81162 | 34.36763 | 8666 ft | 290 kts | 185° |
| 2026-05-06 11:16 | 27.79180 | 34.36537 | 7969 ft | 282 kts | 199° |
| 2026-05-06 11:16 | 27.77492 | 34.35539 | 6933 ft | 272 kts | 224° |
| 2026-05-06 11:16 | 27.76391 | 34.33855 | 5826 ft | 266 kts | 249° |
| 2026-05-06 11:17 | 27.76037 | 34.31837 | 4692 ft | 262 kts | 274° |
| 2026-05-06 11:17 | 27.76482 | 34.29889 | 3900 ft | 257 kts | 300° |
| 2026-05-06 11:17 | 27.77523 | 34.28351 | 3747 ft | 229 kts | 314° |
| 2026-05-06 11:17 | 27.78531 | 34.27120 | 3671 ft | 199 kts | 313° |
| 2026-05-06 11:18 | 27.79393 | 34.26052 | 3598 ft | 170 kts | 313° |
| 2026-05-06 11:18 | 27.80155 | 34.25108 | 3541 ft | 154 kts | 313° |
| 2026-05-06 11:18 | 27.80923 | 34.24353 | 3481 ft | 139 kts | 330° |
| 2026-05-06 11:18 | 27.81819 | 34.24011 | 3484 ft | 138 kts | 353° |
| 2026-05-06 11:19 | 27.82777 | 34.24071 | 3489 ft | 139 kts | 12° |
| 2026-05-06 11:19 | 27.83654 | 34.24545 | 3481 ft | 142 kts | 34° |
| 2026-05-06 11:19 | 27.84391 | 34.25292 | 3397 ft | 143 kts | 41° |
| 2026-05-06 11:19 | 27.85119 | 34.26049 | 3237 ft | 142 kts | 41° |
| 2026-05-06 11:20 | 27.85845 | 34.26803 | 3079 ft | 142 kts | 41° |
| 2026-05-06 11:20 | 27.86562 | 34.27550 | 2888 ft | 141 kts | 40° |
| 2026-05-06 11:20 | 27.87295 | 34.28312 | 2710 ft | 143 kts | 41° |
| 2026-05-06 11:20 | 27.88024 | 34.29070 | 2527 ft | 143 kts | 41° |
| 2026-05-06 11:21 | 27.88759 | 34.29835 | 2352 ft | 143 kts | 41° |
| 2026-05-06 11:21 | 27.89491 | 34.30596 | 2170 ft | 143 kts | 41° |
| 2026-05-06 11:21 | 27.90223 | 34.31358 | 1970 ft | 143 kts | 42° |
| 2026-05-06 11:21 | 27.90956 | 34.32122 | 1791 ft | 144 kts | 42° |
| 2026-05-06 11:22 | 27.91689 | 34.32885 | 1597 ft | 143 kts | 42° |
| 2026-05-06 11:22 | 27.92415 | 34.33640 | 1405 ft | 140 kts | 42° |
| 2026-05-06 11:22 | 27.93125 | 34.34380 | 1207 ft | 137 kts | 42° |
| 2026-05-06 11:22 | 27.93822 | 34.35106 | 1023 ft | 135 kts | 42° |
| 2026-05-06 11:23 | 27.94508 | 34.35820 | 839 ft | 134 kts | 41° |
| 2026-05-06 11:23 | 27.95182 | 34.36523 | 641 ft | 128 kts | 42° |
| 2026-05-06 11:23 | 27.95846 | 34.37215 | 466 ft | 130 kts | 43° |
| 2026-05-06 11:23 | 27.96504 | 34.37900 | 280 ft | 128 kts | 43° |
| 2026-05-06 11:24 | 27.97134 | 34.38558 | 142 ft | 111 kts | 43° |
| 2026-05-06 11:24 | 27.97476 | 34.38919 | 137 ft | 33 kts | 43° |
| 2026-05-06 11:24 | 27.97638 | 34.39081 | 135 ft | 30 kts | 43° |
| 2026-05-06 11:24 | 27.97790 | 34.39072 | 136 ft | 24 kts | 310° |
| 2026-05-06 11:25 | 27.97776 | 34.38933 | 136 ft | 19 kts | 223° |
| 2026-05-06 11:25 | 27.97775 | 34.38748 | 135 ft | 24 kts | 304° |
| 2026-05-06 11:25 | 27.97750 | 34.38591 | 135 ft | 15 kts | 229° |
| 2026-05-06 11:25 | 27.97697 | 34.38564 | 136 ft | 0 kts | 158° |